createdAt,value
2023-04-26T00:00:41.919Z,7.70
2023-04-26T00:01:41.844Z,8.40
2023-04-26T00:02:41.925Z,10.00
2023-04-26T00:03:41.982Z,8.90
2023-04-26T00:04:42.000Z,7.00
2023-04-26T00:05:41.971Z,8.40
2023-04-26T00:06:41.768Z,8.50
2023-04-26T00:07:41.785Z,9.60
2023-04-26T00:08:41.766Z,8.50
2023-04-26T00:09:41.761Z,9.20
2023-04-26T00:10:41.751Z,8.40
2023-04-26T00:11:41.738Z,8.00
2023-04-26T00:12:41.855Z,7.20
2023-04-26T00:13:41.714Z,10.30
2023-04-26T00:14:41.740Z,9.90
2023-04-26T00:15:41.701Z,9.80
2023-04-26T00:16:41.750Z,11.20
2023-04-26T00:17:41.740Z,9.30
2023-04-26T00:18:41.651Z,8.20
2023-04-26T00:19:41.659Z,6.90
2023-04-26T00:20:41.621Z,8.20
2023-04-26T00:21:41.603Z,8.30
2023-04-26T00:22:41.597Z,10.20
2023-04-26T00:23:41.604Z,8.10
2023-04-26T00:24:41.562Z,8.50
2023-04-26T00:25:41.540Z,7.00
2023-04-26T00:26:41.535Z,8.30
2023-04-26T00:27:41.515Z,9.00
2023-04-26T00:28:41.530Z,8.50
2023-04-26T00:29:41.486Z,10.10
2023-04-26T00:30:41.489Z,8.40
2023-04-26T00:31:41.495Z,8.50
2023-04-26T00:32:41.487Z,8.50
2023-04-26T00:33:41.495Z,6.00
2023-04-26T00:34:41.441Z,9.60
2023-04-26T00:35:41.405Z,6.80
2023-04-26T00:36:41.399Z,7.90
2023-04-26T00:37:41.384Z,8.60
2023-04-26T00:38:41.407Z,9.80
2023-04-26T00:39:41.382Z,10.60
2023-04-26T00:40:41.361Z,8.30
2023-04-26T00:41:41.362Z,8.40
2023-04-26T00:42:41.376Z,8.20
2023-04-26T00:43:41.321Z,7.70
2023-04-26T00:44:41.319Z,10.70
2023-04-26T00:45:41.286Z,10.20
2023-04-26T00:46:41.258Z,9.80
2023-04-26T00:47:41.344Z,11.60
2023-04-26T00:48:41.292Z,9.50
2023-04-26T00:49:41.274Z,7.80
2023-04-26T00:50:41.214Z,7.10
2023-04-26T00:51:41.204Z,9.60
2023-04-26T00:52:41.181Z,10.50
2023-04-26T00:53:41.158Z,8.70
2023-04-26T00:54:41.175Z,9.00
2023-04-26T00:55:41.224Z,8.40
2023-04-26T00:56:41.199Z,8.30
2023-04-26T00:57:41.207Z,10.20
2023-04-26T00:58:41.121Z,9.90
2023-04-26T00:59:41.076Z,9.50
2023-04-26T01:00:41.112Z,8.40
2023-04-26T01:01:41.167Z,10.00
2023-04-26T01:02:41.217Z,8.20
2023-04-26T01:03:41.178Z,9.40
2023-04-26T01:04:41.057Z,10.20
2023-04-26T01:05:41.003Z,8.60
2023-04-26T01:06:40.996Z,9.80
2023-04-26T01:07:41.018Z,11.30
2023-04-26T01:08:41.004Z,9.90
2023-04-26T01:09:40.972Z,10.40
2023-04-26T01:10:40.933Z,10.00
2023-04-26T01:11:40.963Z,10.30
2023-04-26T01:12:40.949Z,9.10
2023-04-26T01:13:40.921Z,9.40
2023-04-26T01:14:40.991Z,8.30
2023-04-26T01:15:40.925Z,10.90
2023-04-26T01:16:41.076Z,9.70
2023-04-26T01:17:40.899Z,10.40
2023-04-26T01:18:40.871Z,12.60
2023-04-26T01:19:40.851Z,12.70
2023-04-26T01:20:40.849Z,9.00
2023-04-26T01:21:40.860Z,10.60
2023-04-26T01:22:40.788Z,9.80
2023-04-26T01:23:40.790Z,9.60
2023-04-26T01:24:40.773Z,10.20
2023-04-26T01:25:40.778Z,8.60
2023-04-26T01:26:40.770Z,12.10
2023-04-26T01:27:40.739Z,10.40
2023-04-26T01:28:40.731Z,8.40
2023-04-26T01:29:40.724Z,9.50
2023-04-26T01:30:40.700Z,11.20
2023-04-26T01:31:40.658Z,10.20
2023-04-26T01:32:40.743Z,15.30
2023-04-26T01:33:40.643Z,10.60
2023-04-26T01:34:40.643Z,10.40
2023-04-26T01:35:40.620Z,9.10
2023-04-26T01:36:40.646Z,10.80
2023-04-26T01:37:40.675Z,10.20
2023-04-26T01:38:40.635Z,9.50
2023-04-26T01:39:40.605Z,9.60
2023-04-26T01:40:40.596Z,11.00
2023-04-26T01:41:40.549Z,14.60
2023-04-26T01:42:40.556Z,9.00
2023-04-26T01:43:40.516Z,12.20
2023-04-26T01:44:40.503Z,11.70
2023-04-26T01:45:40.533Z,11.30
2023-04-26T01:46:40.595Z,10.30
2023-04-26T01:47:40.580Z,11.30
2023-04-26T01:48:40.556Z,10.60
2023-04-26T01:49:40.526Z,12.70
2023-04-26T01:50:40.498Z,12.60
2023-04-26T01:51:40.455Z,14.80
2023-04-26T01:52:40.460Z,12.40
2023-04-26T01:53:40.430Z,12.30
2023-04-26T01:54:40.427Z,10.50
2023-04-26T01:55:40.376Z,12.40
2023-04-26T01:56:40.326Z,10.70
2023-04-26T01:57:40.356Z,10.50
2023-04-26T01:58:40.343Z,10.20
2023-04-26T01:59:40.300Z,13.50
2023-04-26T02:00:40.299Z,10.50
2023-04-26T02:01:40.345Z,10.00
2023-04-26T02:02:40.321Z,10.60
2023-04-26T02:03:40.292Z,11.50
2023-04-26T02:04:40.270Z,11.00
2023-04-26T02:05:40.262Z,10.50
2023-04-26T02:06:40.232Z,11.40
2023-04-26T02:07:40.285Z,11.60
2023-04-26T02:08:40.183Z,11.50
2023-04-26T02:09:40.197Z,10.20
2023-04-26T02:10:40.220Z,14.00
2023-04-26T02:11:40.195Z,10.30
2023-04-26T02:12:40.128Z,14.20
2023-04-26T02:13:40.125Z,11.70
2023-04-26T02:14:40.102Z,14.10
2023-04-26T02:15:40.169Z,12.90
2023-04-26T02:16:40.130Z,12.00
2023-04-26T02:17:40.147Z,10.30
2023-04-26T02:18:40.162Z,12.00
2023-04-26T02:19:40.087Z,13.40
2023-04-26T02:20:40.028Z,11.90
2023-04-26T02:21:40.046Z,12.80
2023-04-26T02:22:40.011Z,13.20
2023-04-26T02:23:40.012Z,10.40
2023-04-26T02:24:39.974Z,12.70
2023-04-26T02:25:39.982Z,12.40
2023-04-26T02:26:39.934Z,12.20
2023-04-26T02:27:39.933Z,15.50
2023-04-26T02:28:40.005Z,14.70
2023-04-26T02:29:43.953Z,12.60
2023-04-26T02:30:39.982Z,13.50
2023-04-26T02:31:39.906Z,15.60
2023-04-26T02:32:39.913Z,12.50
2023-04-26T02:33:39.880Z,16.20
2023-04-26T02:34:39.844Z,16.40
2023-04-26T02:35:39.900Z,15.10
2023-04-26T02:36:39.802Z,12.70
2023-04-26T02:37:39.885Z,14.20
2023-04-26T02:38:39.790Z,16.50
2023-04-26T02:39:39.789Z,14.80
2023-04-26T02:40:39.789Z,16.90
2023-04-26T02:41:39.787Z,13.40
2023-04-26T02:42:39.766Z,16.70
2023-04-26T02:43:39.795Z,15.90
2023-04-26T02:44:40.072Z,16.90
2023-04-26T02:45:39.716Z,16.20
2023-04-26T02:46:39.729Z,14.10
2023-04-26T02:47:39.754Z,15.10
2023-04-26T02:48:39.692Z,16.10
2023-04-26T02:49:39.649Z,14.60
2023-04-26T02:50:39.642Z,18.10
2023-04-26T02:51:39.609Z,19.50
2023-04-26T02:52:39.579Z,13.50
2023-04-26T02:53:39.622Z,14.70
2023-04-26T02:54:39.589Z,13.20
2023-04-26T02:55:39.571Z,15.90
2023-04-26T02:56:39.547Z,17.40
2023-04-26T02:57:39.549Z,16.10
2023-04-26T02:58:39.553Z,16.60
2023-04-26T02:59:39.533Z,14.10
2023-04-26T03:00:39.550Z,15.80
2023-04-26T03:01:39.643Z,15.80
2023-04-26T03:02:39.597Z,14.00
2023-04-26T03:03:39.526Z,14.20
2023-04-26T03:04:39.468Z,16.30
2023-04-26T03:05:39.452Z,14.40
2023-04-26T03:06:39.450Z,15.40
2023-04-26T03:07:39.504Z,16.20
2023-04-26T03:08:39.440Z,13.10
2023-04-26T03:09:39.427Z,17.00
2023-04-26T03:10:39.386Z,15.10
2023-04-26T03:11:39.417Z,14.10
2023-04-26T03:12:39.390Z,16.60
2023-04-26T03:13:39.378Z,14.40
2023-04-26T03:14:39.347Z,16.10
2023-04-26T03:15:39.417Z,17.00
2023-04-26T03:16:39.355Z,16.30
2023-04-26T03:17:39.335Z,16.40
2023-04-26T03:18:39.285Z,14.60
2023-04-26T03:19:39.307Z,12.50
2023-04-26T03:20:39.276Z,13.90
2023-04-26T03:21:39.259Z,13.70
2023-04-26T03:22:39.320Z,16.60
2023-04-26T03:23:39.202Z,14.40
2023-04-26T03:24:39.232Z,13.60
2023-04-26T03:25:39.173Z,11.30
2023-04-26T03:26:39.334Z,14.40
2023-04-26T03:27:39.187Z,16.30
2023-04-26T03:28:39.173Z,15.10
2023-04-26T03:29:39.158Z,12.20
2023-04-26T03:30:39.136Z,12.60
2023-04-26T03:31:39.148Z,13.60
2023-04-26T03:32:39.193Z,14.20
2023-04-26T03:33:39.095Z,16.80
2023-04-26T03:34:39.111Z,14.30
2023-04-26T03:35:39.106Z,14.30
2023-04-26T03:36:39.048Z,16.20
2023-04-26T03:37:39.029Z,14.10
2023-04-26T03:38:39.008Z,12.60
2023-04-26T03:39:39.000Z,14.40
2023-04-26T03:40:39.013Z,11.50
2023-04-26T03:41:39.052Z,11.80
2023-04-26T03:42:38.995Z,13.90
2023-04-26T03:43:39.030Z,12.50
2023-04-26T03:44:38.916Z,12.70
2023-04-26T03:45:38.949Z,15.50
2023-04-26T03:46:39.051Z,13.50
2023-04-26T03:47:38.954Z,15.00
2023-04-26T03:48:38.962Z,14.80
2023-04-26T03:49:38.941Z,15.40
2023-04-26T03:50:38.879Z,15.30
2023-04-26T03:51:38.838Z,14.00
2023-04-26T03:52:38.855Z,15.20
2023-04-26T03:53:38.873Z,17.00
2023-04-26T03:54:38.840Z,16.70
2023-04-26T03:55:38.774Z,16.40
2023-04-26T03:56:38.822Z,13.70
2023-04-26T03:57:38.758Z,15.30
2023-04-26T03:58:38.761Z,15.10
2023-04-26T03:59:38.752Z,14.60
2023-04-26T04:00:38.817Z,15.60
2023-04-26T04:01:38.754Z,15.30
2023-04-26T04:02:38.834Z,17.50
2023-04-26T04:03:41.214Z,17.50
2023-04-26T04:04:38.986Z,15.10
2023-04-26T04:05:38.820Z,12.40
2023-04-26T04:06:38.639Z,15.50
2023-04-26T04:07:38.635Z,18.00
2023-04-26T04:08:38.631Z,18.00
2023-04-26T04:09:38.596Z,14.80
2023-04-26T04:10:38.631Z,13.10
2023-04-26T04:11:38.636Z,16.40
2023-04-26T04:12:38.584Z,17.50
2023-04-26T04:13:38.618Z,21.80
2023-04-26T04:14:38.586Z,17.10
2023-04-26T04:15:38.596Z,13.80
2023-04-26T04:16:38.575Z,22.00
2023-04-26T04:17:38.896Z,17.90
2023-04-26T04:18:38.467Z,17.70
2023-04-26T04:19:38.458Z,17.40
2023-04-26T04:20:38.510Z,17.60
2023-04-26T04:21:38.497Z,19.40
2023-04-26T04:22:38.491Z,19.10
2023-04-26T04:23:38.468Z,18.10
2023-04-26T04:24:38.497Z,18.10
2023-04-26T04:25:38.431Z,20.80
2023-04-26T04:26:38.429Z,20.90
2023-04-26T04:27:38.373Z,20.40
2023-04-26T04:28:38.383Z,16.20
2023-04-26T04:29:38.346Z,19.40
2023-04-26T04:30:38.361Z,26.60
2023-04-26T04:31:38.380Z,22.20
2023-04-26T04:32:38.361Z,20.70
2023-04-26T04:33:38.278Z,21.20
2023-04-26T04:34:38.324Z,15.70
2023-04-26T04:35:38.274Z,21.20
2023-04-26T04:36:38.325Z,17.90
2023-04-26T04:37:38.409Z,21.60
2023-04-26T04:38:38.234Z,20.00
2023-04-26T04:39:38.312Z,20.80
2023-04-26T04:40:38.223Z,19.60
2023-04-26T04:41:38.220Z,20.00
2023-04-26T04:42:38.278Z,19.50
2023-04-26T04:43:38.218Z,20.50
2023-04-26T04:44:38.296Z,21.60
2023-04-26T04:45:38.137Z,16.90
2023-04-26T04:46:38.303Z,20.10
2023-04-26T04:47:38.165Z,19.00
2023-04-26T04:48:38.093Z,16.90
2023-04-26T04:49:38.086Z,19.10
2023-04-26T04:50:38.068Z,20.20
2023-04-26T04:51:38.030Z,17.10
2023-04-26T04:52:38.041Z,21.30
2023-04-26T04:53:38.064Z,20.30
2023-04-26T04:54:38.027Z,22.40
2023-04-26T04:55:37.992Z,19.10
2023-04-26T04:56:38.026Z,19.60
2023-04-26T04:57:37.963Z,20.30
2023-04-26T04:58:38.005Z,21.20
2023-04-26T04:59:37.922Z,16.30
2023-04-26T05:00:38.138Z,20.30
2023-04-26T05:01:37.990Z,17.20
2023-04-26T05:02:38.024Z,17.30
2023-04-26T05:03:38.031Z,18.80
2023-04-26T05:04:38.141Z,19.70
2023-04-26T05:05:37.896Z,16.90
2023-04-26T05:06:37.897Z,17.80
2023-04-26T05:07:37.905Z,15.00
2023-04-26T05:08:37.904Z,14.50
2023-04-26T05:09:37.912Z,16.70
2023-04-26T05:10:37.830Z,16.80
2023-04-26T05:11:37.862Z,20.20
2023-04-26T05:12:37.781Z,17.40
2023-04-26T05:13:37.789Z,17.30
2023-04-26T05:14:37.832Z,17.10
2023-04-26T05:15:37.757Z,18.00
2023-04-26T05:16:37.805Z,17.10
2023-04-26T05:17:37.734Z,19.40
2023-04-26T05:18:37.741Z,18.10
2023-04-26T05:19:37.725Z,19.30
2023-04-26T05:20:37.674Z,20.10
2023-04-26T05:21:37.675Z,16.60
2023-04-26T05:23:45.243Z,18.40
2023-04-26T05:24:37.646Z,19.00
2023-04-26T05:25:37.668Z,19.50
2023-04-26T05:26:37.679Z,18.30
2023-04-26T05:27:37.584Z,24.50
2023-04-26T05:28:37.563Z,20.00
2023-04-26T05:29:37.546Z,20.80
2023-04-26T05:30:37.561Z,17.80
2023-04-26T05:31:37.540Z,18.50
2023-04-26T05:32:37.557Z,17.10
2023-04-26T05:33:37.513Z,19.70
2023-04-26T05:34:37.483Z,22.80
2023-04-26T05:35:37.505Z,21.20
2023-04-26T05:36:37.504Z,24.20
2023-04-26T05:37:37.442Z,18.40
2023-04-26T05:38:37.550Z,20.00
2023-04-26T05:39:37.409Z,19.90
2023-04-26T05:40:37.412Z,18.80
2023-04-26T05:41:37.398Z,22.00
2023-04-26T05:42:37.401Z,24.50
2023-04-26T05:43:37.363Z,22.10
2023-04-26T05:44:37.386Z,21.70
2023-04-26T05:45:37.395Z,28.90
2023-04-26T05:46:37.341Z,20.80
2023-04-26T05:47:37.322Z,24.20
2023-04-26T05:48:42.230Z,21.90
2023-04-26T05:49:37.277Z,23.30
2023-04-26T05:50:39.574Z,23.80
2023-04-26T05:51:37.254Z,23.00
2023-04-26T05:52:37.238Z,29.80
2023-04-26T05:53:37.227Z,25.10
2023-04-26T05:54:37.227Z,28.10
2023-04-26T05:55:37.226Z,25.20
2023-04-26T05:56:37.198Z,27.80
2023-04-26T05:57:37.191Z,22.40
2023-04-26T05:58:37.190Z,22.30
2023-04-26T05:59:37.148Z,23.50
2023-04-26T06:00:37.128Z,23.30
2023-04-26T06:01:37.128Z,22.00
2023-04-26T06:02:37.245Z,23.20
2023-04-26T06:03:37.398Z,20.00
2023-04-26T06:04:37.239Z,24.30
2023-04-26T06:05:37.120Z,24.40
2023-04-26T06:06:37.076Z,22.00
2023-04-26T06:07:37.084Z,20.90
2023-04-26T06:08:37.060Z,22.50
2023-04-26T06:09:37.001Z,23.60
2023-04-26T06:10:37.039Z,19.30
2023-04-26T06:11:36.999Z,21.00
2023-04-26T06:12:37.009Z,20.00
2023-04-26T06:13:36.991Z,25.60
2023-04-26T06:14:36.949Z,22.40
2023-04-26T06:15:36.956Z,24.70
2023-04-26T06:16:36.965Z,19.90
2023-04-26T06:17:36.940Z,23.00
2023-04-26T06:18:36.903Z,20.90
2023-04-26T06:19:36.947Z,23.90
2023-04-26T06:20:36.928Z,23.90
2023-04-26T06:21:36.971Z,22.50
2023-04-26T06:22:36.876Z,22.50
2023-04-26T06:23:36.869Z,25.20
2023-04-26T06:24:36.842Z,22.70
2023-04-26T06:25:36.803Z,26.70
2023-04-26T06:26:36.842Z,26.90
2023-04-26T06:27:36.809Z,21.50
2023-04-26T06:28:36.789Z,27.50
2023-04-26T06:29:36.767Z,28.70
2023-04-26T06:30:36.831Z,27.10
2023-04-26T06:31:36.866Z,28.60
2023-04-26T06:32:36.780Z,29.80
2023-04-26T06:33:36.725Z,30.70
2023-04-26T06:34:36.715Z,30.10
2023-04-26T06:35:36.724Z,33.90
2023-04-26T06:36:36.933Z,32.40
2023-04-26T06:37:36.670Z,29.80
2023-04-26T06:38:36.666Z,28.90
2023-04-26T06:39:36.636Z,28.40
2023-04-26T06:40:36.694Z,28.10
2023-04-26T06:41:36.598Z,24.30
2023-04-26T06:42:36.671Z,25.00
2023-04-26T06:43:36.604Z,27.80
2023-04-26T06:44:36.630Z,24.90
2023-04-26T06:45:36.623Z,21.90
2023-04-26T06:46:36.590Z,20.50
2023-04-26T06:47:36.643Z,25.00
2023-04-26T06:48:36.525Z,23.00
2023-04-26T06:49:36.514Z,21.50
2023-04-26T06:50:36.733Z,24.10
2023-04-26T06:51:36.545Z,23.60
2023-04-26T06:52:36.497Z,23.20
2023-04-26T06:53:36.464Z,24.80
2023-04-26T06:54:46.266Z,22.20
2023-04-26T06:55:37.455Z,22.40
2023-04-26T06:56:36.451Z,19.60
2023-04-26T06:57:36.527Z,25.70
2023-04-26T06:58:36.631Z,23.10
2023-04-26T06:59:36.412Z,19.50
2023-04-26T07:00:36.390Z,20.10
2023-04-26T07:01:36.427Z,19.50
2023-04-26T07:02:36.540Z,20.40
2023-04-26T07:03:36.642Z,19.80
2023-04-26T07:04:36.645Z,19.70
2023-04-26T07:05:36.343Z,17.50
2023-04-26T07:06:36.310Z,19.40
2023-04-26T07:07:36.277Z,18.80
2023-04-26T07:08:36.328Z,17.10
2023-04-26T07:09:36.274Z,16.00
2023-04-26T07:10:37.969Z,14.80
2023-04-26T07:11:36.267Z,13.70
2023-04-26T07:12:36.475Z,12.20
2023-04-26T07:13:36.240Z,17.50
2023-04-26T07:14:37.870Z,15.80
2023-04-26T07:15:36.323Z,16.30
2023-04-26T07:16:36.362Z,16.70
2023-04-26T07:17:36.187Z,19.90
2023-04-26T07:18:36.160Z,16.80
2023-04-26T07:19:36.178Z,15.90
2023-04-26T07:20:36.142Z,20.10
2023-04-26T07:21:36.155Z,18.70
2023-04-26T07:22:36.136Z,15.60
2023-04-26T07:23:36.100Z,20.90
2023-04-26T07:24:36.082Z,19.30
2023-04-26T07:25:36.077Z,16.80
2023-04-26T07:26:36.044Z,11.90
2023-04-26T07:27:36.063Z,13.00
2023-04-26T07:28:36.037Z,12.70
2023-04-26T07:29:36.017Z,16.40
2023-04-26T07:30:36.010Z,11.70
2023-04-26T07:31:36.010Z,16.10
2023-04-26T07:32:36.185Z,17.50
2023-04-26T07:33:36.118Z,15.50
2023-04-26T07:34:35.999Z,17.80
2023-04-26T07:35:35.930Z,14.40
2023-04-26T07:36:35.916Z,16.20
2023-04-26T07:37:35.935Z,13.00
2023-04-26T07:38:35.888Z,11.00
2023-04-26T07:39:35.869Z,11.70
2023-04-26T07:40:35.878Z,10.90
2023-04-26T07:41:35.874Z,14.50
2023-04-26T07:42:35.891Z,14.30
2023-04-26T07:43:35.827Z,14.90
2023-04-26T07:44:35.837Z,15.40
2023-04-26T07:45:35.920Z,14.80
2023-04-26T07:46:35.776Z,15.60
2023-04-26T07:47:35.818Z,18.00
2023-04-26T07:48:35.771Z,18.10
2023-04-26T07:49:35.726Z,18.90
2023-04-26T07:50:35.723Z,17.40
2023-04-26T07:51:36.465Z,17.50
2023-04-26T07:52:35.712Z,20.70
2023-04-26T07:53:35.729Z,18.30
2023-04-26T07:54:35.673Z,18.10
2023-04-26T07:55:35.710Z,16.10
2023-04-26T07:56:35.652Z,17.00
2023-04-26T07:57:35.631Z,18.50
2023-04-26T07:58:35.623Z,20.30
2023-04-26T07:59:35.731Z,19.40
2023-04-26T08:00:35.607Z,18.70
2023-04-26T08:01:35.596Z,14.80
2023-04-26T08:02:44.506Z,18.10
2023-04-26T08:03:36.767Z,15.80
2023-04-26T08:04:35.842Z,14.20
2023-04-26T08:05:35.792Z,19.70
2023-04-26T08:06:35.505Z,17.80
2023-04-26T08:07:35.549Z,17.80
2023-04-26T08:08:35.505Z,16.10
2023-04-26T08:09:35.518Z,20.10
2023-04-26T08:10:35.472Z,15.50
2023-04-26T08:11:35.513Z,14.50
2023-04-26T08:12:35.462Z,11.00
2023-04-26T08:13:35.448Z,14.60
2023-04-26T08:14:35.421Z,15.60
2023-04-26T08:15:35.438Z,14.30
2023-04-26T08:16:35.407Z,15.30
2023-04-26T08:17:35.458Z,14.50
2023-04-26T08:18:35.359Z,15.70
2023-04-26T08:19:35.353Z,13.00
2023-04-26T08:20:35.335Z,12.80
2023-04-26T08:21:35.353Z,14.90
2023-04-26T08:22:35.331Z,13.10
2023-04-26T08:23:35.299Z,13.30
2023-04-26T08:24:35.279Z,15.40
2023-04-26T08:25:35.243Z,18.30
2023-04-26T08:26:35.276Z,16.10
2023-04-26T08:27:35.245Z,18.60
2023-04-26T08:28:35.214Z,15.20
2023-04-26T08:29:35.206Z,17.30
2023-04-26T08:30:35.219Z,16.20
2023-04-26T08:31:35.249Z,15.50
2023-04-26T08:32:35.192Z,17.10
2023-04-26T08:33:35.161Z,15.70
2023-04-26T08:34:35.148Z,14.40
2023-04-26T08:35:35.144Z,12.10
2023-04-26T08:36:35.092Z,13.70
2023-04-26T08:37:35.111Z,15.00
2023-04-26T08:38:35.095Z,12.10
2023-04-26T08:39:35.074Z,10.90
2023-04-26T08:40:35.066Z,11.50
2023-04-26T08:41:35.060Z,13.40
2023-04-26T08:42:37.456Z,66.70
2023-04-26T08:43:35.064Z,245.10
2023-04-26T08:44:35.028Z,109.70
2023-04-26T08:45:35.007Z,37.40
2023-04-26T08:46:34.981Z,13.30
2023-04-26T08:47:34.982Z,15.10
2023-04-26T08:48:34.976Z,508.90
2023-04-26T08:49:34.966Z,766.30
2023-04-26T08:50:34.918Z,442.40
2023-04-26T08:51:34.883Z,403.50
2023-04-26T08:52:34.878Z,247.80
2023-04-26T08:53:34.864Z,60.80
2023-04-26T08:54:34.874Z,25.40
2023-04-26T08:55:34.905Z,17.30
2023-04-26T08:56:34.865Z,1186.00
2023-04-26T08:57:34.813Z,668.40
2023-04-26T08:58:34.822Z,432.80
2023-04-26T08:59:34.780Z,21.60
2023-04-26T09:00:34.784Z,36.80
2023-04-26T09:01:34.858Z,57.70
2023-04-26T09:02:34.874Z,35.00
2023-04-26T09:03:34.847Z,6.90
2023-04-26T09:04:34.925Z,6.60
2023-04-26T09:05:34.757Z,6.30
2023-04-26T09:06:34.719Z,6.70
2023-04-26T09:07:34.687Z,44.30
2023-04-26T09:08:34.661Z,233.90
2023-04-26T09:09:34.661Z,127.60
2023-04-26T09:10:34.666Z,8.20
2023-04-26T09:11:34.644Z,6.00
2023-04-26T09:12:34.609Z,8.20
2023-04-26T09:13:34.600Z,41.00
2023-04-26T09:14:34.604Z,18.20
2023-04-26T09:15:34.729Z,9.30
2023-04-26T09:16:34.630Z,11.30
2023-04-26T09:17:35.540Z,7.60
2023-04-26T09:18:36.083Z,8.70
2023-04-26T09:19:34.511Z,134.60
2023-04-26T09:20:34.550Z,125.30
2023-04-26T09:21:34.464Z,171.80
2023-04-26T09:22:34.478Z,46.50
2023-04-26T09:23:34.525Z,68.00
2023-04-26T09:24:35.070Z,51.70
2023-04-26T09:25:34.485Z,24.10
2023-04-26T09:26:34.577Z,18.00
2023-04-26T09:27:34.445Z,8.10
2023-04-26T09:28:34.383Z,7.20
2023-04-26T09:29:34.343Z,6.00
2023-04-26T09:30:34.354Z,6.90
2023-04-26T09:31:34.373Z,7.20
2023-04-26T09:32:34.395Z,5.80
2023-04-26T09:33:34.421Z,8.40
2023-04-26T09:34:34.375Z,12.00
2023-04-26T09:35:34.417Z,13.90
2023-04-26T09:36:34.275Z,11.30
2023-04-26T09:37:34.580Z,11.80
2023-04-26T09:38:34.250Z,10.00
2023-04-26T09:39:34.288Z,8.40
2023-04-26T09:40:34.211Z,43.60
2023-04-26T09:41:34.214Z,39.40
2023-04-26T09:42:40.950Z,27.60
2023-04-26T09:43:35.869Z,22.40
2023-04-26T09:45:47.300Z,7.40
2023-04-26T09:46:47.545Z,8.40
2023-04-26T09:47:47.355Z,5.40
2023-04-26T09:48:50.483Z,6.90
2023-04-26T09:49:47.071Z,3.60
2023-04-26T09:50:46.951Z,4.20
2023-04-26T09:51:47.028Z,5.10
2023-04-26T09:52:46.962Z,5.60
2023-04-26T09:53:47.037Z,9.50
2023-04-26T09:54:47.005Z,5.40
2023-04-26T09:55:46.977Z,6.90
2023-04-26T09:56:46.989Z,4.50
2023-04-26T09:57:47.041Z,7.40
2023-04-26T09:58:46.917Z,5.00
2023-04-26T09:59:46.877Z,4.60
2023-04-26T10:00:47.638Z,5.40
2023-04-26T10:01:47.848Z,7.90
2023-04-26T10:02:47.020Z,4.60
2023-04-26T10:03:47.336Z,19.00
2023-04-26T10:04:47.111Z,9.50
2023-04-26T10:05:46.870Z,9.50
2023-04-26T10:06:46.944Z,11.40
2023-04-26T10:07:46.816Z,15.10
2023-04-26T10:08:46.876Z,16.00
2023-04-26T10:09:46.908Z,13.90
2023-04-26T10:10:46.822Z,6.90
2023-04-26T10:11:46.750Z,6.80
2023-04-26T10:12:47.378Z,7.20
2023-04-26T10:13:52.539Z,5.80
2023-04-26T10:14:46.654Z,5.80
2023-04-26T10:15:46.850Z,5.10
2023-04-26T10:16:46.776Z,4.90
2023-04-26T10:17:46.793Z,6.90
2023-04-26T10:18:46.613Z,5.80
2023-04-26T10:19:46.747Z,5.60
2023-04-26T10:20:46.551Z,5.60
2023-04-26T10:21:46.551Z,8.30
2023-04-26T10:22:46.518Z,6.20
2023-04-26T10:23:46.461Z,6.40
2023-04-26T10:24:46.640Z,6.40
2023-04-26T10:25:46.579Z,5.20
2023-04-26T10:26:46.439Z,5.60
2023-04-26T10:27:46.527Z,6.60
2023-04-26T10:28:46.412Z,5.40
2023-04-26T10:29:46.445Z,6.00
2023-04-26T10:30:46.409Z,4.90
2023-04-26T10:31:46.427Z,6.20
2023-04-26T10:32:46.500Z,4.60
2023-04-26T10:33:46.361Z,5.20
2023-04-26T10:34:46.434Z,4.70
2023-04-26T10:35:46.362Z,5.30
2023-04-26T10:36:46.291Z,5.20
2023-04-26T10:37:46.273Z,6.40
2023-04-26T10:38:46.278Z,5.30
2023-04-26T10:39:46.382Z,5.80
2023-04-26T10:40:46.276Z,4.40
2023-04-26T10:41:46.228Z,6.10
2023-04-26T10:42:46.219Z,8.30
2023-04-26T10:43:46.187Z,5.70
2023-04-26T10:44:46.252Z,5.50
2023-04-26T10:45:46.267Z,6.20
2023-04-26T10:46:46.182Z,4.50
2023-04-26T10:49:08.617Z,8.00
2023-04-26T10:50:08.846Z,5.90
2023-04-26T10:51:08.701Z,5.00
2023-04-26T10:52:08.608Z,9.50
2023-04-26T10:53:08.556Z,4.90
2023-04-26T10:54:08.520Z,5.70
2023-04-26T10:55:08.571Z,5.20
2023-04-26T10:56:08.523Z,5.60
2023-04-26T10:57:08.533Z,5.50
2023-04-26T10:58:08.505Z,5.00
2023-04-26T10:59:22.588Z,4.40
2023-04-26T11:00:09.528Z,6.20
2023-04-26T11:01:08.783Z,4.60
2023-04-26T11:02:08.546Z,5.60
2023-04-26T11:03:08.625Z,7.30
2023-04-26T11:04:08.589Z,6.70
2023-04-26T11:05:08.646Z,5.80
2023-04-26T11:07:22.847Z,6.40
2023-04-26T11:08:22.734Z,7.70
2023-04-26T11:09:22.814Z,5.00
2023-04-26T11:10:22.771Z,6.30
2023-04-26T11:11:22.682Z,5.70
2023-04-26T11:12:22.692Z,7.00
2023-04-26T11:13:29.435Z,5.30
2023-04-26T11:14:22.710Z,6.20
2023-04-26T11:15:22.627Z,6.60
2023-04-26T11:16:22.800Z,5.90
2023-04-26T11:17:22.669Z,6.10
2023-04-26T11:18:22.617Z,7.60
2023-04-26T11:19:22.569Z,5.80
2023-04-26T11:20:22.565Z,5.70
2023-04-26T11:21:22.577Z,6.20
2023-04-26T11:22:22.534Z,5.70
2023-04-26T11:23:22.563Z,6.30
2023-04-26T11:24:33.264Z,6.70
2023-04-26T11:25:22.533Z,7.20
2023-04-26T11:26:22.624Z,5.10
2023-04-26T11:27:22.472Z,5.00
2023-04-26T11:28:22.520Z,4.80
2023-04-26T11:29:22.545Z,5.30
2023-04-26T11:30:22.502Z,6.90
2023-04-26T11:31:22.492Z,6.60
2023-04-26T11:32:22.440Z,6.80
2023-04-26T11:33:22.452Z,5.60
2023-04-26T11:34:22.458Z,6.30
2023-04-26T11:35:22.354Z,5.60
2023-04-26T11:36:26.142Z,5.90
2023-04-26T11:37:22.489Z,7.10
2023-04-26T11:38:22.325Z,6.60
2023-04-26T11:39:22.367Z,5.70
2023-04-26T11:40:22.333Z,4.70
2023-04-26T11:41:22.294Z,6.00
2023-04-26T11:42:22.257Z,5.20
2023-04-26T11:43:22.342Z,5.00
2023-04-26T11:44:22.385Z,5.80
2023-04-26T11:45:22.285Z,5.60
2023-04-26T11:46:22.329Z,5.20
2023-04-26T11:47:22.235Z,5.30
2023-04-26T11:48:22.347Z,6.30
2023-04-26T11:49:22.248Z,6.20
2023-04-26T11:50:22.358Z,4.40
2023-04-26T11:51:22.230Z,6.40
2023-04-26T11:52:22.407Z,5.30
2023-04-26T11:53:22.142Z,3.80
2023-04-26T11:54:35.284Z,3.80
2023-04-26T11:55:22.063Z,4.80
2023-04-26T11:56:22.132Z,5.60
2023-04-26T11:57:22.149Z,4.00
2023-04-26T11:58:22.054Z,4.30
2023-04-26T11:59:22.019Z,3.70
2023-04-26T12:00:22.133Z,2.70
2023-04-26T12:01:21.989Z,5.10
2023-04-26T12:02:22.061Z,5.80
2023-04-26T12:03:22.270Z,5.00
2023-04-26T12:04:22.296Z,3.70
2023-04-26T12:05:21.944Z,4.60
2023-04-26T12:06:21.947Z,3.90
2023-04-26T12:07:30.573Z,3.90
2023-04-26T12:08:21.875Z,5.30
2023-04-26T12:09:21.879Z,3.70
2023-04-26T12:10:21.883Z,3.20
2023-04-26T12:11:21.840Z,3.80
2023-04-26T12:12:21.877Z,4.40
2023-04-26T12:13:21.920Z,3.00
2023-04-26T12:14:21.945Z,4.80
2023-04-26T12:15:21.851Z,2.90
2023-04-26T12:16:26.783Z,2.70
2023-04-26T12:17:22.939Z,3.40
2023-04-26T12:18:21.796Z,3.80
2023-04-26T12:19:21.726Z,4.40
2023-04-26T12:20:21.684Z,3.20
2023-04-26T12:21:21.750Z,4.40
2023-04-26T12:22:21.755Z,4.50
2023-04-26T12:23:21.711Z,5.00
2023-04-26T12:24:21.649Z,4.10
2023-04-26T12:25:21.829Z,5.10
2023-04-26T12:26:21.716Z,4.30
2023-04-26T12:27:21.653Z,6.30
2023-04-26T12:28:22.001Z,4.70
2023-04-26T12:29:21.739Z,6.50
2023-04-26T12:30:21.903Z,7.10
2023-04-26T12:31:21.571Z,4.20
2023-04-26T12:32:22.636Z,4.40
2023-04-26T12:33:22.070Z,5.70
2023-04-26T12:34:21.632Z,4.40
2023-04-26T12:35:21.507Z,4.70
2023-04-26T12:36:21.516Z,4.10
2023-04-26T12:37:21.466Z,5.20
2023-04-26T12:38:21.436Z,6.50
2023-04-26T12:39:21.468Z,4.40
2023-04-26T12:40:21.578Z,5.00
2023-04-26T12:41:21.378Z,5.00
2023-04-26T12:42:21.476Z,7.10
2023-04-26T12:43:21.397Z,5.00
2023-04-26T12:44:22.671Z,4.90
2023-04-26T12:45:21.329Z,4.90
2023-04-26T12:46:21.435Z,3.60
2023-04-26T12:47:21.685Z,5.30
2023-04-26T12:48:21.392Z,4.60
2023-04-26T12:49:21.539Z,3.20
2023-04-26T12:50:21.381Z,3.90
2023-04-26T12:51:21.285Z,4.60
2023-04-26T12:52:21.251Z,3.50
2023-04-26T12:53:21.226Z,3.00
2023-04-26T12:54:21.224Z,3.90
2023-04-26T12:55:21.290Z,5.30
2023-04-26T12:56:21.179Z,3.80
2023-04-26T12:57:21.237Z,6.00
2023-04-26T12:58:21.189Z,4.30
2023-04-26T12:59:21.120Z,5.10
2023-04-26T13:00:21.191Z,4.60
2023-04-26T13:01:21.145Z,4.00
2023-04-26T13:02:21.188Z,3.80
2023-04-26T13:03:21.281Z,3.70
2023-04-26T13:04:21.276Z,4.70
2023-04-26T13:05:21.062Z,5.00
2023-04-26T13:06:21.103Z,4.50